Dades meteomassalio
Diari Summary for Octubre 18, 2017 Units:  English    Metric   Both
« Previous Day
Next Day »
Diari Semanal Mensual Anual Personalitzat
  Maxima: Minima: Mijana:
Temperatura: TemperatureC °F 12.2 °F 15.7 °F
Rosada: DewpointC °F 10.9 °F 13.1 °F
Humitat: Humidity % 65 % 85 %
Velocitat del vent: WindSpeedKMH mph 0.0 mph 5.9 mph
Racha vent: WindSpeedGustKMH mph - -
Vent:- - East
Pressio: PressurehPa in 1010.0 in -
Pluja: 4.3 in    
Historical Graphs
 
 
Tabular Data for Octubre 18, 2017
Time Temperature Dew Point Pressure Wind Wind Speed Wind Gust Humidity Rainfall Rate (Hourly) solar Conditions
TemperatureC °F DewpointC °F PressurehPa in Calm     Humidity % HourlyPrecipMM in SolarRadiationWatts/m^2 W/m2 Conditions
00:01 16.1 °F 12.3 °F 1020.9 in Calm     78 % 0.0 in 0.0 W/m2 RA
00:06 16.1 °F 12.3 °F 1020.5 in Calm     78 % 0.0 in 0.0 W/m2 CLR
00:11 16.1 °F 12.3 °F 1020.5 in Calm     78 % 0.0 in 0.0 W/m2 CLR
00:16 16.1 °F 12.4 °F 1020.5 in Calm     79 % 0.0 in 0.0 W/m2 CLR
00:21 16.1 °F 12.4 °F 1020.5 in Calm     79 % 0.0 in 0.0 W/m2 CLR
00:26 16.1 °F 12.4 °F 1020.2 in Calm     79 % 0.0 in 0.0 W/m2 CLR
00:31 16.1 °F 12.4 °F 1020.2 in Calm     79 % 0.0 in 0.0 W/m2 CLR
00:36 16.1 °F 12.4 °F 1020.2 in Calm     79 % 0.0 in 0.0 W/m2 CLR
00:41 16.1 °F 12.7 °F 1020.2 in NW 5.6 mph   80 % 0.0 in 0.0 W/m2 CLR
00:46 16.1 °F 12.7 °F 1020.2 in Calm     80 % 0.0 in 0.0 W/m2 CLR
00:51 16.1 °F 12.7 °F 1019.9 in Calm     80 % 0.0 in 0.0 W/m2 CLR
00:56 16.1 °F 12.8 °F 1020.2 in Calm     81 % 0.0 in 0.0 W/m2 CLR
01:01 16.1 °F 12.8 °F 1020.2 in Calm     81 % 0.0 in 0.0 W/m2 CLR
01:06 16.1 °F 13.1 °F 1020.2 in Calm     82 % 0.0 in 0.0 W/m2 CLR
01:11 16.1 °F 13.1 °F 1019.9 in Calm     82 % 0.0 in 0.0 W/m2 CLR
01:16 16.1 °F 13.1 °F 1019.9 in Calm     82 % 0.0 in 0.0 W/m2 CLR
01:21 16.1 °F 13.1 °F 1019.9 in Calm     82 % 0.0 in 0.0 W/m2 CLR
01:26 16.1 °F 13.1 °F 1019.9 in Calm     82 % 0.3 in 0.0 W/m2 RA
01:31 16.1 °F 13.1 °F 1019.9 in Calm     82 % 0.3 in 0.0 W/m2 CLR
01:37 16.1 °F 13.2 °F 1019.9 in Calm     83 % 0.3 in 0.0 W/m2 CLR
01:42 15.6 °F 12.9 °F 1020.2 in Calm     84 % 0.3 in 0.0 W/m2 CLR
01:47 15.6 °F 12.9 °F 1019.9 in Calm     84 % 0.3 in 0.0 W/m2 CLR
01:52 16.1 °F 13.6 °F 1019.9 in Calm     85 % 0.5 in 0.0 W/m2 RA
01:57 16.1 °F 13.6 °F 1019.9 in Calm     85 % 0.5 in 0.0 W/m2 CLR
02:02 15.6 °F 13.1 °F 1019.9 in Calm     85 % 0.5 in 0.0 W/m2 CLR
02:07 15.6 °F 13.1 °F 1019.5 in NE 5.6 mph 5.6 mph 85 % 0.5 in 0.0 W/m2 CLR
02:12 15.6 °F 13.1 °F 1019.5 in Calm     85 % 0.5 in 0.0 W/m2 CLR
02:17 15.6 °F 13.1 °F 1019.5 in Calm     85 % 0.5 in 0.0 W/m2 CLR
02:22 15.6 °F 13.2 °F 1019.9 in Calm     86 % 0.5 in 0.0 W/m2 CLR
02:27 15.6 °F 13.1 °F 1019.5 in Calm     85 % 0.3 in 0.0 W/m2 CLR
02:32 15.6 °F 13.1 °F 1019.5 in NE 7.4 mph 7.4 mph 85 % 0.3 in 0.0 W/m2 CLR
02:37 15.0 °F 12.5 °F 1019.5 in Calm     85 % 0.3 in 0.0 W/m2 CLR
02:42 15.0 °F 12.7 °F 1019.5 in Calm     86 % 0.3 in 0.0 W/m2 CLR
02:47 15.0 °F 12.7 °F 1019.5 in Calm     86 % 0.3 in 0.0 W/m2 CLR
02:52 15.0 °F 12.8 °F 1019.2 in Calm     87 % 0.0 in 0.0 W/m2 CLR
02:57 15.0 °F 12.8 °F 1019.2 in Calm     87 % 0.3 in 0.0 W/m2 RA
03:02 15.0 °F 12.8 °F 1019.2 in Calm     87 % 0.3 in 0.0 W/m2
03:07 15.0 °F 12.8 °F 1019.2 in Calm     87 % 0.3 in 0.0 W/m2 CLR
03:12 15.0 °F 12.8 °F 1019.2 in Calm     87 % 0.3 in 0.0 W/m2 CLR
03:17 15.6 °F 13.6 °F 1018.8 in Calm     88 % 0.3 in 0.0 W/m2 CLR
03:22 15.6 °F 13.6 °F 1018.8 in Calm     88 % 0.3 in 0.0 W/m2 CLR
03:27 15.6 °F 13.7 °F 1018.8 in Calm     89 % 0.3 in 0.0 W/m2 CLR
03:32 15.0 °F 13.2 °F 1018.8 in Calm     89 % 0.3 in 0.0 W/m2 CLR
03:37 15.6 °F 13.7 °F 1018.8 in Calm     89 % 0.3 in 0.0 W/m2 CLR
03:42 16.1 °F 14.3 °F 1018.5 in Calm     89 % 0.3 in 0.0 W/m2 CLR
03:47 15.6 °F 13.7 °F 1018.5 in Calm     89 % 0.3 in 0.0 W/m2 CLR
03:52 15.6 °F 13.7 °F 1018.5 in Calm     89 % 0.3 in 0.0 W/m2 CLR
03:57 15.6 °F 13.7 °F 1018.5 in Calm     89 % 0.0 in 0.0 W/m2 CLR
04:02 15.6 °F 13.7 °F 1018.2 in Calm     89 % 0.0 in 0.0 W/m2 CLR
04:07 15.6 °F 13.7 °F 1018.2 in Calm     89 % 0.0 in 0.0 W/m2 CLR
04:12 15.0 °F 13.2 °F 1018.2 in Calm     89 % 0.0 in 0.0 W/m2 CLR
04:17 15.0 °F 13.2 °F 1018.2 in Calm     89 % 0.0 in 0.0 W/m2 CLR
04:22 15.0 °F 13.2 °F 1018.2 in Calm     89 % 0.0 in 0.0 W/m2 CLR
04:27 15.0 °F 13.2 °F 1018.2 in Calm     89 % 0.0 in 0.0 W/m2 CLR
04:32 15.0 °F 13.2 °F 1018.2 in Calm     89 % 0.0 in 0.0 W/m2 CLR
04:37 15.0 °F 13.4 °F 1017.8 in Calm     90 % 0.0 in 0.0 W/m2 CLR
04:42 15.0 °F 13.4 °F 1017.8 in Calm     90 % 0.0 in 0.0 W/m2 CLR
04:47 15.0 °F 13.4 °F 1017.8 in Calm     90 % 0.0 in 0.0 W/m2 CLR
04:52 15.0 °F 13.4 °F 1017.8 in Calm     90 % 0.0 in 0.0 W/m2 CLR
04:57 15.0 °F 13.4 °F 1017.5 in Calm     90 % 0.0 in 0.0 W/m2 CLR
05:02 15.0 °F 13.4 °F 1017.5 in Calm     90 % 0.0 in 0.0 W/m2 CLR
05:07 15.0 °F 13.4 °F 1017.5 in Calm     90 % 0.0 in 0.0 W/m2 CLR
05:12 14.4 °F 13.0 °F 1017.5 in Calm     91 % 0.0 in 0.0 W/m2 CLR
05:18 14.4 °F 13.0 °F 1017.5 in Calm     91 % 0.0 in 0.0 W/m2 CLR
05:22 14.4 °F 13.0 °F 1017.5 in Calm     91 % 0.0 in 0.0 W/m2 CLR
05:23 14.4 °F 13.0 °F 1017.5 in Calm     91 % 0.0 in 0.0 W/m2 CLR
05:25 14.4 °F 13.0 °F 1017.2 in Calm     91 % 0.0 in 0.0 W/m2 CLR
05:26 14.4 °F 13.0 °F 1017.2 in Calm     91 % 0.0 in 0.0 W/m2 CLR
05:29 14.4 °F 13.0 °F 1017.2 in Calm     91 % 0.0 in 0.0 W/m2 CLR
05:31 14.4 °F 13.0 °F 1017.2 in Calm     91 % 0.0 in 0.0 W/m2 CLR
05:36 14.4 °F 13.0 °F 1017.2 in Calm     91 % 0.0 in 0.0 W/m2 CLR
05:40 14.4 °F 13.0 °F 1017.2 in Calm     91 % 0.0 in 0.0 W/m2 CLR
05:45 13.9 °F 12.4 °F 1017.2 in Calm     91 % 0.0 in 0.0 W/m2 CLR
05:50 13.9 °F 12.4 °F 1017.2 in Calm     91 % 0.0 in 0.0 W/m2 CLR
05:55 13.9 °F 12.4 °F 1017.2 in Calm     91 % 0.0 in 0.0 W/m2 CLR
06:00 13.9 °F 12.4 °F 1016.8 in Calm     91 % 0.0 in 0.0 W/m2 CLR
06:05 13.9 °F 12.4 °F 1016.8 in Calm     91 % 0.0 in 0.0 W/m2 CLR
06:10 13.9 °F 12.4 °F 1016.8 in Calm     91 % 0.0 in 0.0 W/m2 CLR
06:15 13.3 °F 11.9 °F 1016.8 in Calm     91 % 0.0 in 0.0 W/m2 CLR
06:20 13.9 °F 12.4 °F 1016.8 in Calm     91 % 0.0 in 0.0 W/m2 CLR
06:25 13.9 °F 12.6 °F 1016.8 in Calm     92 % 0.0 in 0.0 W/m2 CLR
06:30 13.9 °F 12.4 °F 1016.8 in Calm     91 % 0.0 in 0.0 W/m2 CLR
06:35 13.9 °F 12.4 °F 1016.8 in Calm     91 % 0.0 in 0.0 W/m2 CLR
06:40 13.9 °F 12.4 °F 1016.8 in Calm     91 % 0.0 in 0.0 W/m2 CLR
06:45 13.9 °F 12.6 °F 1016.5 in Calm     92 % 0.0 in 0.0 W/m2 CLR
06:50 13.9 °F 12.6 °F 1016.5 in Calm     92 % 0.0 in 0.0 W/m2 CLR
06:55 13.9 °F 12.6 °F 1016.5 in Calm     92 % 0.0 in 0.0 W/m2 CLR
07:00 13.9 °F 12.6 °F 1016.5 in Calm     92 % 0.0 in 0.0 W/m2 CLR
07:05 13.9 °F 12.6 °F 1016.5 in Calm     92 % 0.0 in 0.0 W/m2 CLR
07:10 13.9 °F 12.6 °F 1016.1 in Calm     92 % 0.0 in 0.0 W/m2 CLR
07:15 13.3 °F 12.1 °F 1016.1 in Calm     92 % 0.0 in 0.0 W/m2 CLR
07:20 13.3 °F 12.1 °F 1016.1 in Calm     92 % 0.0 in 0.0 W/m2 CLR
07:25 13.3 °F 12.1 °F 1016.1 in Calm     92 % 0.0 in 0.0 W/m2 CLR
07:30 13.3 °F 12.1 °F 1016.1 in Calm     92 % 0.0 in 0.0 W/m2 CLR
07:35 12.8 °F 11.5 °F 1016.1 in Calm     92 % 0.0 in 0.0 W/m2 CLR
07:40 12.8 °F 11.5 °F 1016.1 in Calm     92 % 0.0 in 0.0 W/m2 CLR
07:45 12.8 °F 11.5 °F 1016.1 in Calm     92 % 0.0 in 0.0 W/m2 CLR
07:50 12.8 °F 11.5 °F 1016.1 in Calm     92 % 0.0 in 0.0 W/m2 CLR
07:55 12.8 °F 11.5 °F 1016.1 in Calm     92 % 0.0 in 0.0 W/m2 CLR
08:00 12.8 °F 11.5 °F 1015.8 in Calm     92 % 0.0 in 0.0 W/m2 CLR
08:05 12.2 °F 10.9 °F 1015.8 in Calm     92 % 0.0 in 0.0 W/m2 OVC
08:10 12.2 °F 10.9 °F 1015.8 in Calm     92 % 0.0 in 0.0 W/m2 OVC
08:15 12.2 °F 10.9 °F 1015.8 in Calm     92 % 0.0 in 0.0 W/m2 OVC
08:20 12.2 °F 10.9 °F 1015.8 in Calm     92 % 0.0 in 5.0 W/m2 OVC
08:25 12.2 °F 10.9 °F 1015.8 in Calm     92 % 0.0 in 9.0 W/m2 BKN
08:30 12.2 °F 10.9 °F 1015.8 in Calm     92 % 0.0 in 18.0 W/m2 BKN
08:35 12.2 °F 10.9 °F 1015.8 in Calm     92 % 0.0 in 19.0 W/m2 BKN
08:40 12.2 °F 10.9 °F 1015.8 in Calm     92 % 0.0 in 25.0 W/m2 BKN
08:45 12.2 °F 10.9 °F 1015.8 in Calm     92 % 0.0 in 28.0 W/m2 BKN
08:50 12.2 °F 10.9 °F 1015.8 in Calm     92 % 0.0 in 33.0 W/m2 BKN
08:55 12.2 °F 10.9 °F 1015.8 in Calm     92 % 0.0 in 42.0 W/m2 BKN
09:00 12.8 °F 11.5 °F 1015.8 in Calm     92 % 0.0 in 56.0 W/m2 SCT
09:05 12.8 °F 11.5 °F 1015.8 in Calm     92 % 0.0 in 51.0 W/m2 SCT
09:10 12.8 °F 11.7 °F 1015.8 in Calm     93 % 0.0 in 77.0 W/m2 FEW
09:15 12.8 °F 11.7 °F 1015.8 in Calm     93 % 0.0 in 93.0 W/m2 FEW
09:20 12.8 °F 11.7 °F 1015.5 in Calm     93 % 0.0 in 105.0 W/m2 CLR
09:25 13.3 °F 12.2 °F 1015.5 in NNE 1.9 mph 1.9 mph 93 % 0.0 in 120.0 W/m2 CLR
09:30 13.3 °F 12.1 °F 1015.8 in Calm     92 % 0.0 in 139.0 W/m2 CLR
09:35 13.3 °F 12.1 °F 1015.5 in Calm     92 % 0.0 in 121.0 W/m2 CLR
09:40 13.9 °F 12.4 °F 1015.5 in Calm     91 % 0.0 in 162.0 W/m2 CLR
09:45 13.9 °F 12.3 °F 1015.5 in Calm     90 % 0.0 in 127.0 W/m2 CLR
09:50 14.4 °F 12.7 °F 1015.5 in Calm     89 % 0.0 in 207.0 W/m2 CLR
09:55 14.4 °F 12.7 °F 1015.5 in Calm     89 % 0.0 in 197.0 W/m2 CLR
10:00 15.0 °F 12.8 °F 1015.5 in Calm     87 % 0.0 in 178.0 W/m2 CLR
10:05 15.0 °F 12.3 °F 1015.5 in NE 9.7 mph 9.7 mph 84 % 0.0 in 109.0 W/m2 CLR
10:10 15.6 °F 12.3 °F 1015.1 in NE 11.1 mph 11.1 mph 81 % 0.0 in 260.0 W/m2 CLR
10:15 15.6 °F 12.1 °F 1015.1 in East 5.6 mph 5.6 mph 80 % 0.0 in 202.0 W/m2 CLR
10:20 16.1 °F 11.7 °F 1015.1 in East 18.5 mph 18.5 mph 75 % 0.0 in 163.0 W/m2 CLR
10:25 16.7 °F 11.4 °F 1015.1 in ESE 20.4 mph 20.4 mph 71 % 0.0 in 128.0 W/m2 CLR
10:30 17.8 °F 12.2 °F 1014.8 in ESE 16.7 mph 16.7 mph 70 % 0.0 in 123.0 W/m2 CLR
10:35 17.8 °F 12.2 °F 1014.8 in East 18.5 mph 18.5 mph 70 % 0.0 in 100.0 W/m2 CLR
10:40 18.3 °F 12.6 °F 1014.8 in ENE 20.4 mph 20.4 mph 69 % 0.0 in 139.0 W/m2 CLR
10:45 18.9 °F 13.3 °F 1014.8 in East 14.8 mph 14.8 mph 70 % 0.0 in 142.0 W/m2 CLR
10:50 18.9 °F 13.3 °F 1014.8 in East 22.2 mph 22.2 mph 70 % 0.0 in 137.0 W/m2 CLR
10:51 18.9 °F 13.3 °F 1014.8 in ENE 22.2 mph 22.2 mph 70 % 0.0 in 137.0 W/m2 CLR
10:56 19.4 °F 13.8 °F 1014.8 in ENE 20.4 mph 20.4 mph 70 % 0.0 in 156.0 W/m2 CLR
11:01 19.4 °F 13.8 °F 1014.8 in ENE 22.2 mph 22.2 mph 70 % 0.0 in 169.0 W/m2 CLR
11:06 19.4 °F 13.8 °F 1014.8 in ENE 14.8 mph 14.8 mph 70 % 0.0 in 181.0 W/m2 CLR
11:11 19.4 °F 13.8 °F 1014.8 in ENE 9.3 mph 9.3 mph 70 % 0.0 in 197.0 W/m2 CLR
11:16 20.0 °F 14.8 °F 1014.8 in ENE 11.1 mph 11.1 mph 72 % 0.0 in 237.0 W/m2 CLR
11:21 20.0 °F 14.8 °F 1015.1 in ENE 18.5 mph 18.5 mph 72 % 0.0 in 313.0 W/m2 CLR
11:26 20.6 °F 15.3 °F 1014.8 in ENE 18.5 mph 18.5 mph 72 % 0.0 in 353.0 W/m2 CLR
11:31 20.6 °F 15.3 °F 1014.8 in ENE 20.4 mph 20.4 mph 72 % 0.0 in 258.0 W/m2 CLR
11:33 20.6 °F 15.3 °F 1014.8 in ENE 18.5 mph 18.5 mph 72 % 0.0 in 318.0 W/m2 CLR
11:53 20.6 °F 15.3 °F 1014.8 in ENE 18.5 mph 18.5 mph 72 % 0.0 in 318.0 W/m2 CLR
11:58 20.0 °F 15.4 °F 1014.1 in NE 24.1 mph 24.1 mph 75 % 0.0 in 188.0 W/m2 CLR
12:03 20.0 °F 15.0 °F 1014.1 in NE 29.6 mph 29.6 mph 73 % 0.0 in 251.0 W/m2 CLR
12:08 20.6 °F 15.6 °F 1014.1 in NE 25.9 mph 25.9 mph 73 % 0.0 in 229.0 W/m2 CLR
12:13 20.6 °F 15.8 °F 1014.1 in ENE 14.8 mph 14.8 mph 74 % 0.0 in 211.0 W/m2 CLR
12:18 21.1 °F 16.3 °F 1014.1 in ENE 25.9 mph 25.9 mph 74 % 0.0 in 246.0 W/m2 CLR
12:23 21.1 °F 16.1 °F 1013.8 in NE 29.0 mph 29.0 mph 73 % 0.0 in 566.0 W/m2 CLR
12:28 21.1 °F 16.1 °F 1013.8 in NE 27.8 mph 27.8 mph 73 % 0.0 in 239.0 W/m2 CLR
12:33 21.1 °F 16.1 °F 1013.8 in ENE 29.6 mph 29.6 mph 73 % 0.0 in 186.0 W/m2 CLR
12:38 20.6 °F 15.8 °F 1013.8 in ENE 20.4 mph 20.4 mph 74 % 0.0 in 95.0 W/m2 CLR
12:43 20.0 °F 15.4 °F 1013.8 in ENE 27.8 mph 27.8 mph 75 % 0.0 in 44.0 W/m2 FEW
12:48 20.0 °F 15.8 °F 1013.4 in NE 24.1 mph 24.1 mph 77 % 0.0 in 47.0 W/m2 SCT
12:53 19.4 °F 15.7 °F 1013.4 in NE 29.6 mph 29.6 mph 79 % 0.0 in 60.0 W/m2 SCT
12:58 18.9 °F 15.6 °F 1013.4 in ENE 20.4 mph 20.4 mph 81 % 0.0 in 60.0 W/m2 SCT
13:04 18.9 °F 15.6 °F 1013.8 in East 27.8 mph 27.8 mph 81 % 0.0 in 60.0 W/m2 SCT
13:09 18.3 °F 15.0 °F 1013.8 in East 20.4 mph 20.4 mph 81 % 0.0 in 67.0 W/m2 SCT
13:14 18.3 °F 15.2 °F 1013.4 in ENE 20.4 mph 20.4 mph 82 % 0.0 in 74.0 W/m2 FEW
13:19 18.3 °F 15.4 °F 1013.4 in NE 22.2 mph 22.2 mph 83 % 0.0 in 95.0 W/m2 FEW
13:24 18.3 °F 15.4 °F 1013.4 in NNE 24.1 mph 24.1 mph 83 % 0.0 in 158.0 W/m2 CLR
13:29 18.3 °F 15.2 °F 1013.4 in NNE 18.5 mph 18.5 mph 82 % 0.0 in 487.0 W/m2 CLR
13:34 18.9 °F 15.7 °F 1013.4 in NNE 14.8 mph 14.8 mph 82 % 0.0 in 786.0 W/m2 CLR
13:39 18.9 °F 15.2 °F 1013.4 in ENE 31.5 mph 31.5 mph 79 % 0.0 in 348.0 W/m2 CLR
13:44 18.9 °F 15.2 °F 1013.1 in NE 27.4 mph 27.4 mph 79 % 0.0 in 232.0 W/m2 CLR
13:49 18.3 °F 14.6 °F 1013.1 in NE 27.8 mph 27.8 mph 79 % 0.0 in 257.0 W/m2 CLR
13:54 18.9 °F 15.2 °F 1012.8 in East 18.5 mph 18.5 mph 79 % 0.0 in 267.0 W/m2 CLR
13:59 18.9 °F 14.9 °F 1012.8 in ENE 22.5 mph 22.5 mph 78 % 0.0 in 274.0 W/m2 CLR
14:04 18.9 °F 15.2 °F 1012.8 in ENE 31.5 mph 31.5 mph 79 % 0.0 in 225.0 W/m2 CLR
14:09 18.9 °F 15.2 °F 1012.4 in NE 25.9 mph 25.9 mph 79 % 0.0 in 169.0 W/m2 CLR
14:14 18.9 °F 15.2 °F 1012.4 in ENE 18.5 mph 18.5 mph 79 % 0.0 in 264.0 W/m2 CLR
14:19 18.9 °F 15.2 °F 1012.4 in ENE 22.2 mph 22.2 mph 79 % 0.0 in 172.0 W/m2 CLR
14:24 18.9 °F 15.2 °F 1012.1 in NE 14.8 mph 14.8 mph 79 % 0.0 in 174.0 W/m2 CLR
14:29 18.9 °F 15.4 °F 1012.4 in NE 20.9 mph 20.9 mph 80 % 0.0 in 302.0 W/m2 CLR
14:34 19.4 °F 16.1 °F 1012.1 in ENE 16.7 mph 16.7 mph 81 % 0.0 in 663.0 W/m2 CLR
14:39 20.0 °F 16.6 °F 1011.7 in NE 9.3 mph 9.3 mph 81 % 0.0 in 608.0 W/m2 CLR
14:44 20.6 °F 17.0 °F 1011.7 in NE 13.0 mph 13.0 mph 80 % 0.0 in 478.0 W/m2 CLR
14:49 20.6 °F 16.6 °F 1011.4 in NE 14.8 mph 14.8 mph 78 % 0.0 in 517.0 W/m2 CLR
14:54 21.7 °F 17.3 °F 1011.4 in ENE 14.5 mph 14.5 mph 76 % 0.0 in 517.0 W/m2 CLR
14:59 21.7 °F 16.4 °F 1011.1 in NE 16.7 mph 16.7 mph 72 % 0.0 in 246.0 W/m2 CLR
15:04 21.7 °F 16.4 °F 1010.7 in NNE 14.8 mph 14.8 mph 72 % 0.0 in 125.0 W/m2 CLR
15:09 21.1 °F 15.7 °F 1010.7 in NE 14.8 mph 14.8 mph 71 % 0.0 in 102.0 W/m2 CLR
15:14 20.6 °F 15.1 °F 1010.7 in Calm     71 % 0.0 in 113.0 W/m2 CLR
15:19 20.6 °F 15.3 °F 1010.7 in NE 8.0 mph 8.0 mph 72 % 0.0 in 104.0 W/m2 CLR
15:24 20.6 °F 15.3 °F 1011.1 in ENE 9.3 mph 9.3 mph 72 % 0.0 in 79.0 W/m2 CLR
15:29 20.6 °F 14.7 °F 1011.1 in ESE 6.4 mph 6.4 mph 69 % 0.0 in 65.0 W/m2 FEW
15:34 21.1 °F 14.3 °F 1011.1 in South 11.1 mph 11.1 mph 65 % 0.0 in 67.0 W/m2 FEW
15:39 21.1 °F 14.5 °F 1011.1 in WSW 27.8 mph 27.8 mph 66 % 0.0 in 63.0 W/m2 SCT
15:44 20.0 °F 14.3 °F 1011.4 in SW 31.5 mph 31.5 mph 70 % 0.0 in 25.0 W/m2 SCT
15:49 19.4 °F 14.7 °F 1011.4 in SW 22.2 mph 22.2 mph 74 % 0.0 in 9.0 W/m2 BKN
15:50 18.9 °F 14.2 °F 1011.7 in SSW 20.4 mph 20.4 mph 74 % 0.0 in 7.0 W/m2 BKN
15:55 18.3 °F 14.0 °F 1012.1 in SW 25.7 mph 25.7 mph 76 % 0.3 in 0.0 W/m2 RA
16:00 17.8 °F 14.3 °F 1011.7 in WSW 18.5 mph 18.5 mph 80 % 1.5 in 7.0 W/m2 RA
16:05 17.2 °F 14.1 °F 1011.7 in SSE 18.5 mph 18.5 mph 82 % 1.5 in 7.0 W/m2 RA
16:10 16.7 °F 13.9 °F 1011.7 in Calm     84 % 1.5 in 7.0 W/m2 BKN
16:15 16.7 °F 13.8 °F 1011.4 in SSE 20.4 mph 20.4 mph 83 % 2.0 in 5.0 W/m2 RA
16:20 16.1 °F 13.4 °F 1011.4 in SSE 18.5 mph 18.5 mph 84 % 2.3 in 5.0 W/m2 RA
16:25 16.1 °F 13.6 °F 1011.1 in South 8.0 mph 8.0 mph 85 % 2.3 in 5.0 W/m2 RA
16:30 15.6 °F 13.1 °F 1011.4 in SSE 5.6 mph 5.6 mph 85 % 2.5 in 5.0 W/m2 RA
16:35 15.6 °F 13.2 °F 1011.4 in Calm     86 % 2.8 in 5.0 W/m2 RA
16:40 15.6 °F 13.2 °F 1011.1 in Calm     86 % 3.0 in 7.0 W/m2 RA
16:45 15.0 °F 12.8 °F 1010.7 in Calm     87 % 3.3 in 9.0 W/m2 RA
16:47 15.0 °F 12.8 °F 1010.7 in Calm     87 % 3.3 in 11.0 W/m2 RA
16:52 15.0 °F 12.8 °F 1010.7 in Calm     87 % 3.3 in 12.0 W/m2 BKN
16:57 15.0 °F 12.8 °F 1010.7 in Calm     87 % 2.3 in 19.0 W/m2 RA
17:02 15.0 °F 13.0 °F 1010.4 in Calm     88 % 2.0 in 26.0 W/m2 BKN
17:07 15.0 °F 13.0 °F 1010.4 in Calm     88 % 1.8 in 37.0 W/m2 BKN
17:12 15.0 °F 13.0 °F 1010.4 in Calm     88 % 1.5 in 53.0 W/m2 BKN
17:17 15.0 °F 13.0 °F 1010.4 in Calm     88 % 1.5 in 70.0 W/m2 SCT
17:18 15.0 °F 13.0 °F 1010.4 in Calm     88 % 1.5 in 72.0 W/m2 SCT
17:23 15.0 °F 13.2 °F 1010.4 in Calm     89 % 1.3 in 74.0 W/m2 FEW
17:28 15.0 °F 13.2 °F 1010.4 in Calm     89 % 1.0 in 69.0 W/m2 FEW
17:33 15.6 °F 13.7 °F 1010.4 in Calm     89 % 0.5 in 46.0 W/m2 FEW
17:38 15.0 °F 13.0 °F 1010.4 in East 7.4 mph 7.4 mph 88 % 0.5 in 28.0 W/m2 SCT
17:43 15.0 °F 13.0 °F 1010.4 in Calm     88 % 0.5 in 23.0 W/m2 BKN
17:48 15.0 °F 13.0 °F 1010.4 in Calm   0.3 mph 88 % 0.3 in 14.0 W/m2 BKN
17:53 15.0 °F 13.0 °F 1010.7 in ENE 14.8 mph 14.8 mph 88 % 0.3 in 9.0 W/m2 BKN
17:58 15.0 °F 12.8 °F 1010.7 in ENE 25.9 mph 25.9 mph 87 % 0.3 in 7.0 W/m2 RA
18:03 15.0 °F 12.5 °F 1010.7 in ENE 22.2 mph 22.2 mph 85 % 0.3 in 7.0 W/m2 BKN
18:08 15.0 °F 12.7 °F 1010.4 in ENE 18.5 mph 18.5 mph 86 % 0.3 in 7.0 W/m2 BKN
18:13 15.0 °F 13.0 °F 1010.4 in ENE 16.7 mph 16.7 mph 88 % 0.3 in 7.0 W/m2 BKN
18:18 15.0 °F 13.0 °F 1010.4 in NE 9.3 mph 9.3 mph 88 % 0.3 in 9.0 W/m2 BKN
18:23 15.0 °F 13.0 °F 1010.0 in NE 11.1 mph 11.1 mph 88 % 0.3 in 12.0 W/m2 BKN
18:28 15.0 °F 13.0 °F 1010.0 in Calm     88 % 0.3 in 16.0 W/m2 BKN
18:33 15.0 °F 13.0 °F 1010.0 in Calm     88 % 0.3 in 19.0 W/m2 BKN
18:38 15.0 °F 12.8 °F 1010.0 in Calm     87 % 0.3 in 21.0 W/m2 BKN
18:43 15.0 °F 12.8 °F 1010.0 in Calm     87 % 0.3 in 23.0 W/m2 BKN
18:48 15.0 °F 12.8 °F 1010.0 in Calm     87 % 0.3 in 23.0 W/m2 BKN
18:53 15.0 °F 13.0 °F 1010.0 in Calm     88 % 0.3 in 16.0 W/m2 BKN
18:58 15.0 °F 13.0 °F 1010.4 in Calm     88 % 0.0 in 12.0 W/m2 BKN
19:03 15.0 °F 13.0 °F 1010.4 in Calm     88 % 0.0 in 5.0 W/m2 OVC
19:08 15.0 °F 13.2 °F 1010.4 in Calm     89 % 0.0 in 5.0 W/m2 OVC
19:13 14.4 °F 12.7 °F 1010.4 in Calm     89 % 0.0 in 0.0 W/m2 OVC
19:18 14.4 °F 12.7 °F 1010.4 in Calm     89 % 0.0 in 0.0 W/m2 OVC
19:23 14.4 °F 12.7 °F 1010.7 in Calm     89 % 0.0 in 0.0 W/m2 OVC
19:28 14.4 °F 12.7 °F 1010.7 in Calm     89 % 0.0 in 0.0 W/m2 CLR
19:33 14.4 °F 12.7 °F 1010.7 in Calm     89 % 0.0 in 0.0 W/m2 CLR
19:38 14.4 °F 12.7 °F 1010.7 in Calm     89 % 0.0 in 0.0 W/m2 CLR
19:43 14.4 °F 12.8 °F 1010.7 in Calm     90 % 0.0 in 0.0 W/m2 CLR
19:48 14.4 °F 12.8 °F 1010.7 in Calm     90 % 0.0 in 0.0 W/m2 CLR
19:53 14.4 °F 12.8 °F 1010.7 in Calm     90 % 0.0 in 0.0 W/m2 CLR
19:58 14.4 °F 12.8 °F 1010.7 in Calm     90 % 0.0 in 0.0 W/m2 CLR
20:03 14.4 °F 12.8 °F 1010.7 in Calm     90 % 0.0 in 0.0 W/m2 CLR
20:08 13.9 °F 12.3 °F 1010.7 in Calm     90 % 0.0 in 0.0 W/m2 CLR
20:13 13.9 °F 12.3 °F 1010.7 in Calm     90 % 0.0 in 0.0 W/m2 CLR
20:18 13.9 °F 12.4 °F 1010.7 in Calm     91 % 0.0 in 0.0 W/m2 CLR
20:23 13.9 °F 12.4 °F 1011.1 in Calm     91 % 0.0 in 0.0 W/m2 CLR
20:28 14.4 °F 13.0 °F 1011.1 in Calm     91 % 0.0 in 0.0 W/m2 CLR
20:33 14.4 °F 13.0 °F 1011.1 in SW 7.4 mph 7.4 mph 91 % 0.0 in 0.0 W/m2 CLR
20:38 14.4 °F 13.0 °F 1011.4 in SSE 7.4 mph 7.4 mph 91 % 0.0 in 0.0 W/m2 CLR
20:43 14.4 °F 12.8 °F 1011.4 in South 13.0 mph 13.0 mph 90 % 0.0 in 0.0 W/m2 CLR
20:48 14.4 °F 12.8 °F 1011.4 in Calm     90 % 0.0 in 0.0 W/m2 CLR
20:53 14.4 °F 12.8 °F 1011.7 in Calm     90 % 0.0 in 0.0 W/m2 CLR
20:58 14.4 °F 12.8 °F 1011.7 in Calm     90 % 0.0 in 0.0 W/m2 CLR
21:03 14.4 °F 12.8 °F 1011.7 in Calm     90 % 0.0 in 0.0 W/m2 CLR
21:08 14.4 °F 12.8 °F 1011.7 in Calm     90 % 0.0 in 0.0 W/m2 CLR
21:13 14.4 °F 12.8 °F 1011.7 in Calm     90 % 0.0 in 0.0 W/m2 CLR
21:18 13.9 °F 12.3 °F 1011.7 in Calm     90 % 0.0 in 0.0 W/m2 CLR
21:23 14.4 °F 12.8 °F 1012.1 in South 7.4 mph 7.4 mph 90 % 0.0 in 0.0 W/m2 CLR
21:28 14.4 °F 12.8 °F 1012.1 in South 18.5 mph 18.5 mph 90 % 0.0 in 0.0 W/m2 CLR
21:33 14.4 °F 12.7 °F 1012.4 in SSE 18.5 mph 18.5 mph 89 % 0.0 in 0.0 W/m2 CLR
21:38 14.4 °F 12.7 °F 1012.4 in South 18.5 mph 18.5 mph 89 % 0.0 in 0.0 W/m2 CLR
21:43 15.0 °F 13.2 °F 1012.4 in South 13.0 mph 13.0 mph 89 % 0.0 in 0.0 W/m2 CLR
21:48 15.0 °F 13.0 °F 1012.4 in South 7.4 mph 7.4 mph 88 % 0.0 in 0.0 W/m2 CLR
21:53 15.0 °F 13.0 °F 1012.4 in Calm     88 % 0.0 in 0.0 W/m2 CLR
21:58 15.0 °F 13.0 °F 1012.4 in Calm     88 % 0.0 in 0.0 W/m2 CLR
22:03 14.4 °F 12.5 °F 1012.4 in Calm     88 % 0.0 in 0.0 W/m2 CLR
22:08 14.4 °F 12.5 °F 1012.8 in Calm     88 % 0.0 in 0.0 W/m2 CLR
22:13 14.4 °F 12.5 °F 1012.8 in Calm     88 % 0.0 in 0.0 W/m2 CLR
22:18 14.4 °F 12.7 °F 1012.8 in Calm     89 % 0.0 in 0.0 W/m2 CLR
22:23 14.4 °F 12.7 °F 1012.8 in Calm     89 % 0.0 in 0.0 W/m2 CLR
22:28 14.4 °F 12.7 °F 1013.1 in Calm     89 % 0.0 in 0.0 W/m2 CLR
22:33 14.4 °F 12.7 °F 1012.8 in Calm     89 % 0.0 in 0.0 W/m2 CLR
22:39 14.4 °F 12.7 °F 1013.1 in Calm     89 % 0.0 in 0.0 W/m2 CLR
22:44 13.9 °F 12.1 °F 1013.1 in Calm     89 % 0.0 in 0.0 W/m2 CLR
22:49 13.9 °F 11.9 °F 1013.1 in Calm     88 % 0.0 in 0.0 W/m2 CLR
22:54 13.9 °F 11.9 °F 1013.1 in Calm     88 % 0.0 in 0.0 W/m2 CLR
22:59 13.9 °F 11.9 °F 1013.1 in Calm     88 % 0.0 in 0.0 W/m2 CLR
23:04 13.9 °F 11.9 °F 1013.1 in Calm     88 % 0.0 in 0.0 W/m2 CLR
23:09 13.9 °F 11.9 °F 1013.1 in Calm     88 % 0.0 in 0.0 W/m2 CLR
23:14 13.9 °F 11.9 °F 1013.1 in Calm     88 % 0.0 in 0.0 W/m2 CLR
23:19 13.9 °F 11.9 °F 1013.1 in Calm     88 % 0.0 in 0.0 W/m2 CLR
23:24 13.9 °F 11.9 °F 1013.4 in Calm     88 % 0.0 in 0.0 W/m2 CLR
23:29 13.9 °F 11.9 °F 1013.1 in Calm     88 % 0.0 in 0.0 W/m2 CLR
23:34 13.9 °F 11.9 °F 1013.1 in Calm     88 % 0.0 in 0.0 W/m2 CLR
23:39 13.9 °F 11.9 °F 1013.1 in Calm     88 % 0.0 in 0.0 W/m2 CLR
23:44 13.3 °F 11.4 °F 1013.1 in Calm     88 % 0.0 in 0.0 W/m2 CLR
23:49 13.3 °F 11.4 °F 1013.1 in Calm     88 % 0.0 in 0.0 W/m2 CLR
23:55 13.3 °F 11.4 °F 1013.1 in Calm     88 % 0.0 in 0.0 W/m2 CLR
Lo Temps de Massalio
Compliments of Weather Underground - 1.25 mb